• Join FlightAware (Why Join?)
  • Login
  • US Flag 
02:35AM EDT


 

Airport Tracker/Info


-or-


 

Live Flight TrackerFlight Track Log ✈ VH-TVL ✈ 06-Jun-2013 ✈ YPJT / JAD - YPJT / JAD

Flight Track Log - Related Links

Times and Time Zones

All times are in EDT time to prevent confusion due to time zone crossing. See the VH-TVL flight status page for this flight to view local times or setup timezone preferences in your user account.

Time Position Orientation Groundspeed Altitude Reporting Facility
EDT Latitude Longitude Course Direction KTS MPH feet Rate Location/Type
07:26PM -32.0840 115.8643 303° West 78 90 900  Level Aus ATC (RADAR)
07:27PM -32.0797 115.8563 303° West 84 97 1,000 180 Climbing Aus ATC (RADAR)
07:27PM -32.0710 115.8353 296° West 103 119 1,100 300 Climbing Aus ATC (RADAR)
07:28PM -32.0633 115.8078 288° West 96 110 1,500 240 Climbing Aus ATC (RADAR)
07:29PM -32.0592 115.7909 286° West 104 120 1,500  Level Aus ATC (RADAR)
07:30PM -32.0424 115.7713 315° West 114 131 1,500  Level Aus ATC (RADAR)
07:30PM -32.0287 115.7714 360° North 117 135 1,500  Level Aus ATC (RADAR)
07:31PM -32.0091 115.7697 356° North 123 142 1,500  Level Aus ATC (RADAR)
07:32PM -31.9701 115.7682 358° North 115 132 1,500  Level Aus ATC (RADAR)
07:32PM -31.9615 115.7682 360° North 117 135 1,500  Level Aus ATC (RADAR)
07:33PM -31.9451 115.7687 North 116 133 1,500 -120 Level Aus ATC (RADAR)
07:34PM -31.9072 115.7740 North 118 136 1,300 -180 Descending Aus ATC (RADAR)
07:34PM -31.8883 115.7758 North 101 116 1,200 -120 Descending Aus ATC (RADAR)
07:35PM -31.8661 115.7788 North 92 106 1,200  Level Aus ATC (RADAR)
07:36PM -31.8481 115.7810 North 96 110 1,200 -60 Level Aus ATC (RADAR)
07:37PM -31.8311 115.8037 49° Northeast 89 102 1,100  Descending Aus ATC (RADAR)
07:37PM -31.8253 115.8110 47° Northeast 92 106 1,200 60 Climbing Aus ATC (RADAR)
07:38PM -31.8142 115.8320 58° Northeast 89 102 1,200 60 Level Aus ATC (RADAR)
07:40PM -31.7828 115.8845 55° Northeast 105 121 1,500 120 Climbing Aus ATC (RADAR)
07:40PM -31.7777 115.8940 58° Northeast 103 119 1,500 -120 Level Aus ATC (RADAR)
07:42PM -31.7571 115.9403 62° Northeast 102 117 1,300 -180 Descending Aus ATC (RADAR)
07:42PM -31.7552 115.9508 78° East 96 110 1,200 -180 Descending Aus ATC (RADAR)
07:43PM -31.7533 115.9492 325° Northwest 92 106 1,100  Descending Aus ATC (RADAR)
07:44PM -31.7703 115.9502 177° South 93 107 1,200 60 Climbing Aus ATC (RADAR)
07:45PM -31.7924 115.9638 152° Southeast 92 106 1,200  Level Aus ATC (RADAR)
07:45PM -31.8051 115.9672 167° South 84 97 1,200 -120 Level Aus ATC (RADAR)
07:46PM -31.8254 115.9729 167° South 83 96 1,100 -120 Descending Aus ATC (RADAR)
07:47PM -31.8388 115.9764 168° South 76 87 1,100 -240 Level Aus ATC (RADAR)
07:48PM -31.8427 115.9603 254° West 73 84 800 -180 Descending Aus ATC (RADAR)
07:48PM -31.8361 115.9531 317° Northwest 78 90 900 180 Climbing Aus ATC (RADAR)
07:49PM -31.8109 115.9532 360° North 99 114 1,100 120 Climbing Aus ATC (RADAR)
07:50PM -31.8008 115.9484 338° Northwest 98 113 1,100  Level Aus ATC (RADAR)
07:50PM -31.7934 115.9294 294° West 91 105 1,100 -60 Level Aus ATC (RADAR)
07:51PM -31.7951 115.9023 266° West 81 93 1,000 -60 Descending Aus ATC (RADAR)
07:52PM -31.7792 115.9007 355° North 82 94 1,000  Level Aus ATC (RADAR)
07:53PM -31.7930 115.9070 159° South 71 82 1,000 -60 Level Aus ATC (RADAR)
07:54PM -31.7867 115.9071 North 77 89 900  Descending Aus ATC (RADAR)
07:55PM -31.7901 115.9299 100° East 77 89 1,000 60 Climbing Aus ATC (RADAR)
07:55PM -31.7926 115.9363 115° Southeast 80 92 1,000  Level Aus ATC (RADAR)
07:56PM -31.7971 115.9548 106° East 87 100 1,000 -120 Level Aus ATC (RADAR)
07:56PM -31.8121 115.9709 138° Southeast 86 99 900 -120 Descending Aus ATC (RADAR)
07:57PM -31.8310 115.9756 168° South 84 97 900  Level Aus ATC (RADAR)
07:58PM -31.8521 115.9789 172° South 86 99 1,000 180 Climbing Aus ATC (RADAR)
07:59PM -31.8656 115.9794 178° South 86 99 1,200 60 Climbing Aus ATC (RADAR)
08:00PM -31.8743 115.9978 119° Southeast 96 110 1,100  Descending Aus ATC (RADAR)
08:00PM -31.8673 115.9963 350° North 93 107 1,200  Climbing Aus ATC (RADAR)
08:01PM -31.8826 115.9823 218° Southwest 89 102 1,100  Descending Aus ATC (RADAR)
08:02PM -31.9019 115.9861 171° South 87 100 1,200 60 Climbing Aus ATC (RADAR)
08:03PM -31.9161 115.9885 172° South 79 91 1,200  Level Aus ATC (RADAR)
08:03PM -31.9218 115.9900 168° South 82 94 1,200  Level Aus ATC (RADAR)
08:03PM -31.9295 115.9906 176° South 85 98 1,200 60 Level Aus ATC (RADAR)
08:04PM -31.9428 115.9877 190° South 83 96 1,300  Climbing Aus ATC (RADAR)
08:05PM -31.9587 115.9885 178° South 88 101 1,200 -120 Descending Aus ATC (RADAR)
08:05PM -31.9830 115.9780 200° South 99 114 1,200  Level Aus ATC (RADAR)
08:06PM -32.0051 115.9733 190° South 97 112 1,200  Level Aus ATC (RADAR)
08:07PM -32.0243 115.9692 190° South 94 108 1,200  Level Aus ATC (RADAR)
08:08PM -32.0377 115.9542 224° Southwest 104 120 1,200  Level Aus ATC (RADAR)
08:08PM -32.0420 115.9477 232° Southwest 101 116 1,200  Level Aus ATC (RADAR)
08:09PM -32.0519 115.9282 239° Southwest 106 122 1,200 -60 Level Aus ATC (RADAR)
08:10PM -32.0710 115.9013 230° Southwest 83 96 1,100  Descending Aus ATC (RADAR)
08:10PM -32.0734 115.8923 252° West 84 97 1,200  Climbing Aus ATC (RADAR)
08:12PM -32.0927 115.8488 242° Southwest 98 113 1,200  Level Aus ATC (RADAR)
08:14PM -32.1259 115.8090 225° Southwest 89 102 1,200  Level Aus ATC (RADAR)
08:14PM -32.1431 115.8096 178° South 93 107 1,200  Level Aus ATC (RADAR)
08:17PM -32.1944 115.7890 199° South 83 96 1,200  Level Aus ATC (RADAR)
08:18PM -32.1932 115.7813 280° West 71 82 1,200 -60 Level Aus ATC (RADAR)
08:21PM -32.2085 115.7888 157° South 89 102 1,100  Descending Aus ATC (RADAR)
08:23PM -32.2301 115.7776 204° Southwest 68 78 1,300  Climbing Aus ATC (RADAR)
08:24PM -32.2639 115.7767 181° South 88 101 1,200 -60 Descending Aus ATC (RADAR)
08:26PM -32.3061 115.8025 153° Southeast 84 97 1,200  Level Aus ATC (RADAR)
08:28PM -32.3388 115.8176 159° South 87 100 1,200  Level Aus ATC (RADAR)
08:28PM -32.3461 115.8216 155° Southeast 86 99 1,200  Level Aus ATC (RADAR)
08:31PM -32.3795 115.8329 164° South 76 87 1,200  Level Aus ATC (RADAR)
08:31PM -32.3773 115.8430 76° East 87 100 1,300  Climbing Aus ATC (RADAR)
08:33PM -32.3343 115.8264 342° North 99 114 1,200 -60 Descending Aus ATC (RADAR)
08:35PM -32.2671 115.7978 340° North 97 112 1,200 -60 Level Aus ATC (RADAR)
08:37PM -32.2267 115.8061 10° North 86 99 1,100  Descending Aus ATC (RADAR)
08:39PM -32.1825 115.7974 351° North 81 93 1,300 60 Climbing Aus ATC (RADAR)
08:41PM -32.1449 115.7860 346° North 102 117 1,500 60 Climbing Aus ATC (RADAR)
08:42PM -32.1053 115.8136 31° Northeast 117 135 1,500  Level Aus ATC (RADAR)
08:42PM -32.0973 115.8218 41° Northeast 114 131 1,500 -300 Level Aus ATC (RADAR)
08:44PM -32.0821 115.8794 73° East 94 108 900 -360 Descending Aus ATC (RADAR)